Boat Bluff, British Columbia

7:25 AM PDT on August 31, 2016 (GMT -0700)
Bella Bella (Campbell Isl | | Change Station

Elev 141 ft 52.19 °N, 128.16 °W | Updated 2 minutes ago

Light Rain
Light Rain Mist
57 °F
Feels Like 57 °F
N
0
Wind Variable Wind from North

Today
High -- | Low -- °F
--% Chance of Precip.
Yesterday
High -- | Low -- °F
Precip. -- in
Pressure 29.83 in
Visibility 3.0 miles
Clouds Few 600 ft
Mostly Cloudy 1600 ft
Overcast 2300 ft
Dew Point 57 °F
Humidity 100%
Rainfall 0.00 in
Snow Depth Not available.
6:44 AM 8:22 PM
Waning Crescent, 1% visible
SPECI CBBC 311423Z AUTO 00000KT 3SM -RA BR FEW006 BKN016 OVC023 14/14 A2983 RMK SLP102
Pressure 29.83 in
Visibility 3.0 miles
Clouds Few 600 ft
Mostly Cloudy 1600 ft
Overcast 2300 ft
Dew Point 57 °F
Humidity 100%
Rainfall 0.00 in
Snow Depth Not available.
6:44 AM 8:22 PM
Waning Crescent, 1% visible
SPECI CBBC 311423Z AUTO 00000KT 3SM -RA BR FEW006 BKN016 OVC023 14/14 A2983 RMK SLP102

10-Day Weather Forecast

No radar image for this location.
×

Almanac

Astronomy

Aug. 31, 2016 Rise Set
Actual Time
Civil Twilight
Nautical Twilight
Astronomical Twilight
Moon
Length of Visible Light
Length of Day
Tomorrow will be .
, % of the Moon is Illuminated

Today's Extremes

Country Highs Country Lows

Community

WunderPhotos

Upload Photos

1,936,091 photos uploaded!

WunderBlog® & News

Nearby

Air Quality

  Air Quality AQ Index Pollutant
Not available.

Snow Depth

Station Depth Elevation

Earthquake Activity

City Distance Mag. Time & Date
Minimum magnitude displayed is 2.5.

Coastal Water Temperatures

Place Temperature

Stations

Nearby Weather Stations

Station Location Temp. Windchill Dew Point Humidity Wind Precip. Elev Updated Type
                   

Watches & Warnings

There are currently no watches in effect.